createdAt,value
2022-10-02T00:00:02.324Z,13.10
2022-10-02T00:02:43.097Z,13.20
2022-10-02T00:05:38.264Z,13.20
2022-10-02T00:08:20.768Z,13.30
2022-10-02T00:11:09.382Z,13.20
2022-10-02T00:14:00.039Z,13.20
2022-10-02T00:16:35.250Z,13.20
2022-10-02T00:19:03.127Z,13.20
2022-10-02T00:22:09.927Z,13.20
2022-10-02T00:24:52.077Z,13.20
2022-10-02T00:28:09.587Z,13.20
2022-10-02T00:31:08.009Z,13.10
2022-10-02T00:34:19.946Z,13.10
2022-10-02T00:37:24.242Z,13.20
2022-10-02T00:40:06.279Z,13.10
2022-10-02T00:42:55.987Z,13.30
2022-10-02T00:45:48.246Z,13.30
2022-10-02T00:48:36.885Z,13.20
2022-10-02T00:51:39.464Z,13.30
2022-10-02T00:55:08.132Z,13.40
2022-10-02T01:01:05.475Z,13.60
2022-10-02T01:03:44.366Z,13.60
2022-10-02T01:06:12.130Z,13.60
2022-10-02T01:08:39.249Z,13.60
2022-10-02T01:11:07.542Z,13.60
2022-10-02T01:13:34.843Z,13.60
2022-10-02T01:16:03.350Z,13.60
2022-10-02T01:18:31.992Z,13.60
2022-10-02T01:21:05.095Z,13.50
2022-10-02T01:23:45.054Z,13.50
2022-10-02T01:26:12.271Z,13.50
2022-10-02T01:28:39.927Z,13.60
2022-10-02T01:31:10.463Z,13.70
2022-10-02T01:33:41.561Z,13.70
2022-10-02T01:36:10.510Z,13.70
2022-10-02T01:38:39.856Z,13.80
2022-10-02T01:41:08.166Z,13.70
2022-10-02T01:43:39.096Z,13.70
2022-10-02T01:46:51.707Z,13.70
2022-10-02T01:49:42.859Z,13.60
2022-10-02T01:52:56.915Z,13.50
2022-10-02T01:56:07.240Z,13.50
2022-10-02T01:59:35.702Z,13.50
2022-10-02T02:02:36.659Z,13.60
2022-10-02T02:05:43.639Z,13.60
2022-10-02T02:11:22.920Z,13.60
2022-10-02T02:14:13.734Z,13.60
2022-10-02T02:16:58.597Z,13.60
2022-10-02T02:19:31.606Z,13.70
2022-10-02T02:22:24.582Z,13.70
2022-10-02T02:25:03.599Z,13.90
2022-10-02T02:27:38.004Z,14.00
2022-10-02T02:30:08.957Z,13.90
2022-10-02T02:32:39.062Z,14.00
2022-10-02T02:35:17.888Z,14.00
2022-10-02T02:37:47.845Z,14.00
2022-10-02T02:40:18.972Z,14.00
2022-10-02T02:43:25.109Z,13.90
2022-10-02T02:46:23.086Z,13.90
2022-10-02T02:48:57.094Z,13.90
2022-10-02T02:51:36.148Z,13.80
2022-10-02T02:54:19.705Z,13.80
2022-10-02T02:56:48.863Z,13.80
2022-10-02T02:59:16.813Z,13.80
2022-10-02T03:01:43.912Z,13.90
2022-10-02T03:04:13.615Z,13.90
2022-10-02T03:06:45.756Z,13.90
2022-10-02T03:09:21.857Z,13.80
2022-10-02T03:12:40.806Z,13.90
2022-10-02T03:15:27.923Z,13.90
2022-10-02T03:18:43.894Z,13.90
2022-10-02T03:21:19.171Z,13.90
2022-10-02T03:24:15.759Z,14.00
2022-10-02T03:27:18.037Z,14.00
2022-10-02T03:29:57.256Z,14.00
2022-10-02T03:32:25.619Z,14.00
2022-10-02T03:34:53.228Z,14.00
2022-10-02T03:37:21.860Z,14.00
2022-10-02T03:39:50.077Z,14.00
2022-10-02T03:42:27.042Z,14.10
2022-10-02T03:44:54.121Z,14.10
2022-10-02T03:47:21.174Z,14.10
2022-10-02T03:49:48.169Z,14.10
2022-10-02T03:52:21.069Z,14.10
2022-10-02T03:54:53.960Z,14.00
2022-10-02T03:57:24.079Z,14.00
2022-10-02T04:00:02.841Z,13.90
2022-10-02T04:02:47.327Z,13.90
2022-10-02T04:05:39.285Z,13.90
2022-10-02T04:08:22.834Z,13.90
2022-10-02T04:11:03.433Z,13.90
2022-10-02T04:14:00.275Z,13.90
2022-10-02T04:16:38.522Z,13.80
2022-10-02T04:19:23.474Z,13.80
2022-10-02T04:22:21.421Z,13.80
2022-10-02T04:25:19.898Z,13.80
2022-10-02T04:28:07.971Z,13.80
2022-10-02T04:30:35.162Z,13.90
2022-10-02T04:33:15.265Z,13.90
2022-10-02T04:36:14.275Z,13.90
2022-10-02T04:39:42.444Z,13.90
2022-10-02T04:42:26.563Z,13.90
2022-10-02T04:45:32.594Z,13.90
2022-10-02T05:13:02.013Z,14.10
2022-10-02T05:16:18.732Z,14.20
2022-10-02T05:19:29.035Z,14.20
2022-10-02T05:22:24.054Z,14.20
2022-10-02T05:25:29.666Z,14.20
2022-10-02T05:28:23.805Z,14.10
2022-10-02T05:31:20.225Z,14.30
2022-10-02T05:34:36.452Z,14.30
2022-10-02T05:37:52.821Z,14.30
2022-10-02T05:40:53.143Z,14.30
2022-10-02T05:43:53.073Z,14.20
2022-10-02T05:46:30.785Z,14.30
2022-10-02T05:49:00.785Z,14.40
2022-10-02T05:51:55.584Z,14.40
2022-10-02T05:55:21.088Z,14.40
2022-10-02T05:57:54.059Z,14.40
2022-10-02T06:00:41.983Z,14.50
2022-10-02T06:03:26.077Z,14.60
2022-10-02T06:06:07.701Z,14.60
2022-10-02T06:08:43.337Z,14.60
2022-10-02T06:11:33.880Z,14.70
2022-10-02T06:14:15.233Z,14.80
2022-10-02T06:17:17.033Z,14.90
2022-10-02T06:20:20.555Z,14.90
2022-10-02T06:23:05.229Z,14.80
2022-10-02T06:25:38.107Z,15.00
2022-10-02T06:28:38.042Z,15.00
2022-10-02T06:31:34.108Z,15.00
2022-10-02T06:34:01.245Z,15.10
2022-10-02T06:36:48.169Z,15.10
2022-10-02T06:39:45.898Z,15.20
2022-10-02T06:42:55.201Z,15.20
2022-10-02T06:45:46.531Z,15.20
2022-10-02T06:48:41.096Z,15.30
2022-10-02T06:51:33.543Z,15.30
2022-10-02T06:54:29.501Z,15.30
2022-10-02T06:57:21.989Z,15.30
2022-10-02T07:00:18.228Z,15.30
2022-10-02T07:03:19.072Z,15.30
2022-10-02T07:06:26.148Z,15.30
2022-10-02T07:09:37.867Z,15.50
2022-10-02T07:13:00.250Z,15.50
2022-10-02T07:16:09.192Z,15.60
2022-10-02T07:19:04.077Z,15.60
2022-10-02T07:21:56.193Z,15.70
2022-10-02T07:24:49.858Z,15.80
2022-10-02T07:30:25.637Z,15.90
2022-10-02T07:33:15.798Z,15.90
2022-10-02T07:35:56.732Z,16.00
2022-10-02T07:56:30.693Z,16.20
2022-10-02T07:59:04.092Z,16.30
2022-10-02T08:01:37.199Z,16.20
2022-10-02T08:04:26.109Z,16.20
2022-10-02T08:06:59.243Z,16.20
2022-10-02T08:09:33.807Z,16.20
2022-10-02T08:12:26.379Z,16.30
2022-10-02T08:14:56.094Z,16.30
2022-10-02T08:18:16.509Z,16.30
2022-10-02T08:20:47.406Z,16.40
2022-10-02T08:24:01.026Z,16.50
2022-10-02T08:26:37.196Z,16.60
2022-10-02T08:29:35.955Z,16.70
2022-10-02T08:32:03.162Z,16.60
2022-10-02T08:34:30.820Z,16.60
2022-10-02T08:37:43.229Z,16.60
2022-10-02T08:40:44.214Z,16.50
2022-10-02T08:46:42.845Z,16.60
2022-10-02T08:50:04.936Z,16.70
2022-10-02T08:53:15.540Z,16.80
2022-10-02T09:06:39.630Z,16.90
2022-10-02T09:10:03.680Z,16.80
2022-10-02T09:13:01.974Z,16.80
2022-10-02T09:16:11.807Z,16.90
2022-10-02T09:25:06.067Z,16.80
2022-10-02T09:28:05.068Z,17.00
2022-10-02T09:31:10.904Z,16.90
2022-10-02T09:34:17.294Z,16.90
2022-10-02T09:47:19.361Z,16.70
2022-10-02T10:19:03.116Z,16.90
2022-10-02T10:25:39.374Z,16.90
2022-10-02T10:28:47.722Z,17.20
2022-10-02T10:32:07.630Z,17.80
2022-10-02T10:51:18.069Z,18.10
2022-10-02T10:56:49.424Z,18.00
2022-10-02T11:00:07.292Z,18.30
2022-10-02T11:03:28.143Z,18.10
2022-10-02T11:06:22.197Z,18.20
2022-10-02T11:09:36.179Z,18.40
2022-10-02T11:25:19.626Z,18.80
2022-10-02T11:29:00.294Z,18.80
2022-10-02T12:08:44.554Z,18.80
2022-10-02T12:11:21.722Z,20.20
2022-10-02T12:14:13.856Z,20.20
2022-10-02T12:17:06.440Z,20.80
2022-10-02T12:20:50.361Z,21.50
2022-10-02T12:27:09.931Z,20.40
2022-10-02T12:30:07.635Z,21.50
2022-10-02T12:36:32.649Z,20.80
2022-10-02T12:39:52.869Z,20.60
2022-10-02T12:42:52.773Z,20.90
2022-10-02T12:46:05.389Z,20.60
2022-10-02T12:49:00.336Z,20.80
2022-10-02T12:51:38.791Z,21.20
2022-10-02T13:33:29.406Z,24.90
2022-10-02T13:42:02.354Z,22.00
2022-10-02T13:47:46.843Z,22.00
2022-10-02T13:51:04.533Z,25.40
2022-10-02T13:56:32.704Z,26.10
2022-10-02T14:02:21.552Z,26.50
2022-10-02T14:23:49.101Z,26.30
2022-10-02T14:26:42.630Z,25.40
2022-10-02T14:38:26.471Z,24.50
2022-10-02T14:44:23.362Z,24.70
2022-10-02T14:47:39.224Z,24.30
2022-10-02T14:50:45.008Z,24.10
2022-10-02T14:54:23.730Z,26.10
2022-10-02T14:57:22.960Z,26.10
2022-10-02T15:29:39.021Z,20.40
2022-10-02T15:32:44.515Z,19.80
2022-10-02T15:35:48.303Z,19.50
2022-10-02T15:38:59.488Z,19.30
2022-10-02T15:42:03.996Z,18.90
2022-10-02T15:47:32.117Z,18.80
2022-10-02T15:50:21.818Z,19.00
2022-10-02T15:53:32.827Z,18.70
2022-10-02T15:56:48.852Z,18.70
2022-10-02T15:59:58.761Z,19.50
2022-10-02T16:02:57.543Z,19.10
2022-10-02T16:06:07.991Z,18.70
2022-10-02T16:09:03.367Z,18.70
2022-10-02T16:11:57.360Z,18.70
2022-10-02T16:14:49.747Z,18.70
2022-10-02T16:17:48.711Z,18.70
2022-10-02T16:24:28.226Z,18.50
2022-10-02T16:27:32.877Z,18.30
2022-10-02T16:30:31.097Z,18.30
2022-10-02T16:33:22.737Z,18.30
2022-10-02T16:36:38.369Z,18.20
2022-10-02T16:39:34.847Z,18.10
2022-10-02T16:42:40.271Z,18.20
2022-10-02T16:46:06.005Z,18.10
2022-10-02T16:49:02.546Z,18.00
2022-10-02T16:58:05.348Z,17.90
2022-10-02T17:00:38.408Z,18.00
2022-10-02T17:03:36.832Z,17.90
2022-10-02T17:06:12.711Z,17.90
2022-10-02T17:08:51.667Z,17.90
2022-10-02T17:11:30.274Z,17.90
2022-10-02T17:14:24.467Z,18.20
2022-10-02T17:17:37.067Z,17.90
2022-10-02T17:20:29.619Z,17.80
2022-10-02T17:23:38.596Z,17.80
2022-10-02T17:26:20.756Z,17.80
2022-10-02T17:29:12.625Z,17.70
2022-10-02T17:31:54.597Z,17.70
2022-10-02T17:34:30.055Z,17.50
2022-10-02T17:40:13.808Z,17.40
2022-10-02T17:43:09.043Z,17.30
2022-10-02T17:46:25.104Z,17.30
2022-10-02T17:49:04.087Z,17.20
2022-10-02T17:52:31.630Z,17.10
2022-10-02T17:55:46.589Z,17.10
2022-10-02T17:58:30.814Z,16.90
2022-10-02T18:01:25.112Z,16.80
2022-10-02T18:04:07.163Z,16.70
2022-10-02T18:07:05.561Z,16.60
2022-10-02T18:10:28.778Z,16.70
2022-10-02T18:13:47.708Z,16.90
2022-10-02T18:16:54.514Z,17.10
2022-10-02T18:19:49.809Z,17.10
2022-10-02T18:23:18.309Z,17.30
2022-10-02T18:26:26.188Z,17.30
2022-10-02T18:29:11.789Z,17.20
2022-10-02T18:31:59.892Z,17.20
2022-10-02T18:38:09.352Z,17.20
2022-10-02T19:16:01.450Z,17.00
2022-10-02T19:18:30.428Z,17.10
2022-10-02T19:29:46.430Z,17.00
2022-10-02T19:32:21.944Z,16.90
2022-10-02T19:35:04.301Z,17.00
2022-10-02T19:37:32.472Z,17.00
2022-10-02T19:40:03.860Z,17.00
2022-10-02T19:42:39.444Z,17.00
2022-10-02T19:45:15.335Z,17.00
2022-10-02T19:48:13.029Z,16.90
2022-10-02T19:58:48.880Z,16.20
2022-10-02T20:01:28.770Z,16.00
2022-10-02T20:17:05.602Z,15.70
2022-10-02T20:19:36.396Z,15.80
2022-10-02T20:22:41.112Z,15.80
2022-10-02T20:25:15.739Z,15.70
2022-10-02T20:28:20.319Z,15.60
2022-10-02T20:31:27.120Z,15.60
2022-10-02T20:33:58.735Z,15.70
2022-10-02T20:36:38.561Z,15.60
2022-10-02T20:39:14.019Z,15.70
2022-10-02T20:42:13.624Z,15.50
2022-10-02T20:44:41.672Z,15.50
2022-10-02T20:47:47.468Z,15.50
2022-10-02T20:50:31.491Z,15.40
2022-10-02T20:53:40.183Z,15.80
2022-10-02T20:56:46.552Z,15.80
2022-10-02T21:24:19.201Z,15.00
2022-10-02T21:32:54.419Z,15.10
2022-10-02T21:36:06.014Z,15.00
2022-10-02T21:39:31.451Z,15.00
2022-10-02T21:43:01.064Z,15.00
2022-10-02T21:46:07.560Z,14.90
2022-10-02T22:08:51.719Z,14.70
2022-10-02T22:12:09.609Z,14.70
2022-10-02T22:14:41.511Z,14.70
2022-10-02T22:17:27.533Z,14.70
2022-10-02T22:20:40.124Z,14.70
2022-10-02T22:23:39.877Z,14.70
2022-10-02T22:26:43.802Z,14.70
2022-10-02T22:29:53.267Z,14.70
2022-10-02T22:33:10.847Z,14.70
2022-10-02T22:36:13.325Z,14.70
2022-10-02T22:39:16.938Z,14.70
2022-10-02T22:41:56.982Z,14.60
2022-10-02T22:44:55.124Z,14.70
2022-10-02T22:47:37.544Z,14.60
2022-10-02T22:50:19.370Z,14.50
2022-10-02T22:52:59.690Z,14.50
2022-10-02T22:55:34.129Z,14.50
2022-10-02T22:58:09.003Z,14.50
2022-10-02T23:00:58.934Z,14.50
2022-10-02T23:03:44.966Z,14.50
2022-10-02T23:06:39.723Z,14.50
2022-10-02T23:09:44.530Z,14.40
2022-10-02T23:12:43.420Z,14.40
2022-10-02T23:15:49.168Z,14.50
2022-10-02T23:18:55.576Z,14.50
2022-10-02T23:21:43.234Z,14.50
2022-10-02T23:24:30.469Z,14.60
2022-10-02T23:27:22.286Z,14.60
2022-10-02T23:30:02.875Z,14.60
2022-10-02T23:33:03.273Z,14.60
2022-10-02T23:36:02.507Z,14.50
2022-10-02T23:41:47.267Z,14.50
2022-10-02T23:44:32.840Z,14.40
2022-10-02T23:47:22.064Z,14.40
2022-10-02T23:49:55.151Z,14.40
2022-10-02T23:53:03.042Z,14.30
2022-10-02T23:55:57.219Z,14.30
2022-10-02T23:58:57.957Z,14.30
